createdAt,value
2022-11-01T00:01:07.994Z,71.73
2022-11-01T00:03:34.709Z,72.24
2022-11-01T00:06:01.648Z,72.82
2022-11-01T00:08:28.377Z,72.67
2022-11-01T00:11:08.291Z,73.08
2022-11-01T00:13:34.863Z,72.88
2022-11-01T00:16:01.717Z,73.54
2022-11-01T00:18:28.412Z,74.12
2022-11-01T00:20:55.072Z,74.21
2022-11-01T00:23:21.646Z,74.18
2022-11-01T00:25:48.375Z,74.73
2022-11-01T00:28:15.040Z,74.48
2022-11-01T00:30:41.787Z,75.74
2022-11-01T00:33:08.619Z,75.65
2022-11-01T00:35:38.404Z,76.13
2022-11-01T00:38:06.264Z,76.41
2022-11-01T00:40:33.122Z,76.83
2022-11-01T00:42:59.942Z,76.89
2022-11-01T00:45:26.568Z,76.69
2022-11-01T00:47:53.177Z,76.91
2022-11-01T00:50:19.941Z,76.95
2022-11-01T00:52:46.935Z,76.75
2022-11-01T00:55:13.606Z,77.59
2022-11-01T00:57:40.190Z,78.01
2022-11-01T01:00:07.489Z,77.56
2022-11-01T01:02:34.315Z,77.70
2022-11-01T01:05:01.168Z,77.33
2022-11-01T01:07:27.858Z,77.28
2022-11-01T01:09:54.545Z,77.97
2022-11-01T01:12:21.407Z,77.46
2022-11-01T01:14:48.317Z,77.87
2022-11-01T01:17:15.104Z,77.50
2022-11-01T01:19:41.987Z,77.72
2022-11-01T01:22:08.777Z,78.04
2022-11-01T01:24:35.380Z,78.49
2022-11-01T01:27:01.965Z,78.83
2022-11-01T01:29:28.655Z,79.09
2022-11-01T01:31:55.352Z,79.55
2022-11-01T01:34:21.981Z,79.77
2022-11-01T01:36:48.578Z,79.37
2022-11-01T01:39:15.165Z,79.48
2022-11-01T01:41:56.635Z,79.58
2022-11-01T01:44:51.622Z,79.85
2022-11-01T01:47:23.719Z,80.93
2022-11-01T01:49:55.300Z,80.92
2022-11-01T01:52:22.555Z,81.38
2022-11-01T01:54:51.093Z,81.68
2022-11-01T01:57:19.082Z,82.59
2022-11-01T01:59:46.254Z,82.34
2022-11-01T02:02:14.140Z,82.62
2022-11-01T02:04:53.100Z,83.09
2022-11-01T02:07:19.699Z,82.95
2022-11-01T02:09:46.607Z,82.96
2022-11-01T02:12:14.411Z,83.40
2022-11-01T02:14:43.948Z,83.73
2022-11-01T02:17:16.519Z,84.28
2022-11-01T02:20:01.517Z,84.86
2022-11-01T02:22:53.749Z,84.81
2022-11-01T02:25:41.237Z,84.74
2022-11-01T02:29:01.792Z,85.31
2022-11-01T02:31:49.212Z,85.60
2022-11-01T02:34:39.091Z,85.42
2022-11-01T02:37:28.549Z,84.76
2022-11-01T02:40:07.513Z,83.95
2022-11-01T02:42:41.517Z,83.67
2022-11-01T02:45:11.959Z,83.63
2022-11-01T02:47:39.824Z,83.88
2022-11-01T02:50:09.638Z,83.60
2022-11-01T02:52:40.343Z,83.49
2022-11-01T02:55:34.170Z,84.03
2022-11-01T02:58:16.451Z,84.12
2022-11-01T03:00:44.489Z,83.81
2022-11-01T03:03:32.820Z,83.89
2022-11-01T03:06:05.155Z,83.89
2022-11-01T03:08:53.058Z,84.10
2022-11-01T03:11:22.741Z,84.01
2022-11-01T03:13:58.256Z,84.39
2022-11-01T03:16:36.282Z,84.81
2022-11-01T03:19:22.730Z,84.56
2022-11-01T03:21:52.572Z,85.00
2022-11-01T03:24:29.099Z,85.22
2022-11-01T03:27:07.536Z,84.94
2022-11-01T03:29:36.636Z,85.55
2022-11-01T03:32:04.913Z,85.60
2022-11-01T03:34:34.507Z,85.96
2022-11-01T03:37:05.973Z,86.65
2022-11-01T03:39:47.308Z,86.65
2022-11-01T03:42:18.298Z,87.17
2022-11-01T03:44:49.353Z,87.08
2022-11-01T03:47:16.255Z,88.07
2022-11-01T03:49:42.819Z,88.22
2022-11-01T03:52:09.760Z,88.82
2022-11-01T03:54:36.607Z,89.33
2022-11-01T03:57:03.321Z,88.92
2022-11-01T03:59:30.147Z,89.38
2022-11-01T04:01:56.881Z,89.84
2022-11-01T04:04:23.643Z,90.17
2022-11-01T04:06:51.223Z,90.96
2022-11-01T04:09:17.863Z,91.37
2022-11-01T04:11:44.458Z,91.32
2022-11-01T04:14:32.537Z,92.25
2022-11-01T04:17:17.627Z,91.45
2022-11-01T04:20:02.930Z,92.02
2022-11-01T04:22:29.539Z,92.03
2022-11-01T04:24:56.104Z,91.89
2022-11-01T04:27:22.709Z,91.30
2022-11-01T04:29:49.279Z,91.70
2022-11-01T04:32:15.887Z,92.05
2022-11-01T04:34:42.470Z,92.46
2022-11-01T04:37:09.971Z,92.71
2022-11-01T04:39:36.848Z,92.78
2022-11-01T04:42:03.569Z,92.97
2022-11-01T04:44:30.148Z,93.23
2022-11-01T04:46:56.747Z,93.76
2022-11-01T04:49:23.338Z,94.14
2022-11-01T04:51:49.932Z,94.12
2022-11-01T04:54:16.505Z,95.19
2022-11-01T04:56:43.248Z,95.09
2022-11-01T04:59:09.838Z,95.22
2022-11-01T05:01:36.524Z,95.10
2022-11-01T05:04:03.385Z,95.22
2022-11-01T05:06:30.027Z,95.19
2022-11-01T05:08:56.656Z,95.50
2022-11-01T05:11:25.711Z,95.90
2022-11-01T05:13:52.840Z,96.56
2022-11-01T05:16:20.617Z,96.62
2022-11-01T05:18:47.511Z,96.55
2022-11-01T05:21:14.155Z,96.22
2022-11-01T05:23:40.785Z,96.85
2022-11-01T05:26:07.529Z,96.75
2022-11-01T05:28:34.752Z,96.71
2022-11-01T05:31:01.524Z,96.84
2022-11-01T05:33:28.216Z,97.69
2022-11-01T05:35:54.832Z,97.65
2022-11-01T05:38:21.509Z,97.84
2022-11-01T05:40:48.228Z,97.72
2022-11-01T05:43:14.957Z,97.45
2022-11-01T05:45:41.575Z,97.42
2022-11-01T05:48:08.469Z,96.44
2022-11-01T05:50:35.165Z,96.03
2022-11-01T05:53:06.503Z,95.26
2022-11-01T05:55:33.194Z,95.41
2022-11-01T05:57:59.800Z,95.15
2022-11-01T06:00:26.495Z,94.65
2022-11-01T06:02:53.085Z,95.07
2022-11-01T06:05:19.659Z,94.90
2022-11-01T06:07:46.287Z,93.21
2022-11-01T06:10:12.868Z,93.00
2022-11-01T06:12:39.481Z,93.06
2022-11-01T06:15:06.530Z,93.05
2022-11-01T06:17:33.321Z,92.74
2022-11-01T06:19:59.999Z,92.57
2022-11-01T06:22:26.650Z,92.82
2022-11-01T06:24:53.270Z,92.69
2022-11-01T06:27:19.842Z,93.30
2022-11-01T06:29:46.595Z,94.71
2022-11-01T06:32:13.243Z,94.37
2022-11-01T06:34:42.415Z,94.19
2022-11-01T06:37:11.531Z,93.93
2022-11-01T06:39:38.254Z,93.90
2022-11-01T06:42:04.945Z,93.42
2022-11-01T06:44:31.814Z,93.22
2022-11-01T06:46:58.396Z,92.46
2022-11-01T06:49:25.432Z,91.62
2022-11-01T06:51:52.005Z,90.43
2022-11-01T06:54:18.642Z,89.67
2022-11-01T06:56:47.790Z,88.98
2022-11-01T06:59:16.483Z,88.43
2022-11-01T07:01:44.226Z,86.96
2022-11-01T07:06:42.731Z,86.13
2022-11-01T07:09:09.511Z,85.09
2022-11-01T07:11:36.354Z,83.99
2022-11-01T07:14:03.350Z,83.11
2022-11-01T07:16:29.965Z,82.67
2022-11-01T07:18:56.566Z,81.40
2022-11-01T07:21:23.375Z,81.99
2022-11-01T07:23:50.630Z,81.99
2022-11-01T07:26:17.767Z,81.54
2022-11-01T07:28:44.354Z,82.20
2022-11-01T07:31:10.925Z,82.21
2022-11-01T07:33:37.585Z,82.09
2022-11-01T07:36:04.908Z,81.29
2022-11-01T07:38:31.891Z,81.31
2022-11-01T07:40:59.101Z,80.25
2022-11-01T07:43:26.156Z,79.70
2022-11-01T07:45:53.650Z,80.46
2022-11-01T07:48:20.354Z,80.30
2022-11-01T07:50:47.059Z,80.22
2022-11-01T07:53:17.155Z,80.53
2022-11-01T07:55:45.386Z,79.66
2022-11-01T07:58:13.297Z,79.48
2022-11-01T08:00:40.977Z,77.19
2022-11-01T08:03:10.156Z,74.70
2022-11-01T08:05:37.362Z,73.72
2022-11-01T08:08:05.756Z,72.82
2022-11-01T08:10:33.736Z,73.17
2022-11-01T08:13:23.024Z,72.70
2022-11-01T08:15:51.727Z,72.44
2022-11-01T08:18:21.486Z,70.80
2022-11-01T08:20:48.714Z,69.86
2022-11-01T08:23:15.356Z,68.25
2022-11-01T08:25:41.972Z,68.71
2022-11-01T08:28:12.679Z,67.98
2022-11-01T08:30:41.620Z,68.05
2022-11-01T08:33:08.225Z,67.77
2022-11-01T08:35:34.961Z,67.92
2022-11-01T08:38:03.341Z,67.94
2022-11-01T08:40:31.487Z,67.29
2022-11-01T08:42:59.182Z,67.71
2022-11-01T08:45:26.345Z,68.43
2022-11-01T08:48:01.011Z,69.03
2022-11-01T08:50:28.471Z,69.34
2022-11-01T08:52:55.238Z,67.77
2022-11-01T08:55:23.054Z,67.13
2022-11-01T08:57:50.105Z,64.41
2022-11-01T09:00:17.647Z,63.81
2022-11-01T09:02:44.322Z,62.67
2022-11-01T09:05:10.936Z,62.70
2022-11-01T09:07:38.098Z,62.52
2022-11-01T09:10:06.445Z,62.19
2022-11-01T09:12:33.482Z,61.67
2022-11-01T09:15:00.215Z,61.20
2022-11-01T09:17:26.919Z,61.15
2022-11-01T09:19:53.502Z,60.92
2022-11-01T09:22:20.112Z,58.47
2022-11-01T09:24:46.786Z,58.76
2022-11-01T09:27:13.383Z,58.27
2022-11-01T09:29:40.549Z,57.62
2022-11-01T09:32:07.302Z,57.90
2022-11-01T09:34:34.746Z,56.81
2022-11-01T09:37:01.808Z,56.99
2022-11-01T09:39:28.427Z,56.22
2022-11-01T09:41:59.870Z,54.63
2022-11-01T09:44:30.820Z,55.67
2022-11-01T09:47:12.468Z,55.54
2022-11-01T09:49:44.159Z,56.39
2022-11-01T09:52:23.833Z,54.94
2022-11-01T09:54:51.043Z,56.22
2022-11-01T09:57:35.760Z,55.39
2022-11-01T10:00:21.332Z,56.07
2022-11-01T10:03:14.828Z,56.74
2022-11-01T10:06:15.515Z,56.54
2022-11-01T10:09:19.263Z,56.57
2022-11-01T10:12:05.153Z,57.17
2022-11-01T10:14:55.750Z,56.93
2022-11-01T10:17:53.030Z,58.09
2022-11-01T10:20:27.871Z,56.76
2022-11-01T10:22:55.339Z,57.57
2022-11-01T10:25:24.738Z,58.10
2022-11-01T10:27:57.014Z,57.70
2022-11-01T10:30:24.347Z,57.70
2022-11-01T10:33:02.419Z,56.45
2022-11-01T10:35:43.247Z,57.00
2022-11-01T10:41:29.893Z,54.58
2022-11-01T10:44:02.374Z,54.66
2022-11-01T10:46:38.388Z,54.37
2022-11-01T10:49:12.462Z,54.27
2022-11-01T10:51:40.873Z,53.81
2022-11-01T10:54:16.171Z,54.41
2022-11-01T10:56:47.510Z,52.43
2022-11-01T10:59:25.658Z,51.59
2022-11-01T11:01:54.963Z,52.70
2022-11-01T11:04:24.046Z,51.47
2022-11-01T11:06:51.921Z,51.45
2022-11-01T11:09:24.131Z,50.31
2022-11-01T11:11:51.432Z,50.44
2022-11-01T11:14:21.243Z,49.94
2022-11-01T11:16:54.038Z,49.31
2022-11-01T11:19:29.685Z,49.82
2022-11-01T11:21:57.894Z,51.55
2022-11-01T11:24:24.461Z,52.18
2022-11-01T11:26:55.668Z,52.79
2022-11-01T11:29:36.939Z,53.03
2022-11-01T11:32:08.246Z,53.17
2022-11-01T11:34:38.288Z,53.37
2022-11-01T11:37:07.911Z,56.02
2022-11-01T11:39:37.218Z,56.95
2022-11-01T11:42:20.596Z,55.80
2022-11-01T11:44:52.134Z,53.73
2022-11-01T11:47:34.778Z,53.75
2022-11-01T11:50:26.508Z,52.84
2022-11-01T11:53:22.253Z,52.91
2022-11-01T11:55:56.914Z,52.67
2022-11-01T11:58:36.397Z,52.34
2022-11-01T12:01:15.788Z,50.95
2022-11-01T12:04:07.529Z,51.12
2022-11-01T12:06:41.290Z,50.72
2022-11-01T12:09:33.963Z,51.38
2022-11-01T12:12:08.839Z,51.25
2022-11-01T12:14:41.499Z,51.09
2022-11-01T12:17:31.447Z,50.27
2022-11-01T12:20:28.992Z,50.54
2022-11-01T12:23:13.873Z,49.98
2022-11-01T12:25:44.244Z,49.89
2022-11-01T12:28:19.410Z,49.97
2022-11-01T12:30:50.911Z,49.71
2022-11-01T12:33:35.918Z,51.15
2022-11-01T12:36:03.921Z,50.51
2022-11-01T12:38:59.037Z,49.83
2022-11-01T12:41:43.220Z,48.74
2022-11-01T12:44:22.439Z,49.19
2022-11-01T12:46:58.469Z,48.72
2022-11-01T12:49:53.373Z,48.16
2022-11-01T12:52:29.684Z,48.32
2022-11-01T12:55:01.987Z,48.56
2022-11-01T12:57:28.935Z,48.67
2022-11-01T12:59:55.664Z,48.80
2022-11-01T13:02:38.368Z,48.70
2022-11-01T13:05:13.101Z,49.04
2022-11-01T13:07:55.912Z,49.11
2022-11-01T13:10:36.214Z,49.10
2022-11-01T13:13:30.495Z,49.28
2022-11-01T13:16:02.595Z,49.49
2022-11-01T13:18:58.204Z,49.29
2022-11-01T13:21:37.724Z,49.59
2022-11-01T13:24:30.900Z,49.60
2022-11-01T13:27:18.006Z,50.00
2022-11-01T13:30:01.846Z,50.44
2022-11-01T13:32:50.280Z,50.05
2022-11-01T13:35:44.645Z,49.78
2022-11-01T13:38:32.643Z,50.42
2022-11-01T13:41:03.432Z,50.90
2022-11-01T13:43:39.510Z,50.59
2022-11-01T13:46:27.972Z,49.98
2022-11-01T13:49:09.567Z,49.60
2022-11-01T13:51:45.851Z,50.50
2022-11-01T13:54:25.931Z,50.29
2022-11-01T13:57:00.490Z,50.72
2022-11-01T13:59:50.244Z,51.18
2022-11-01T14:02:23.157Z,51.22
2022-11-01T14:05:12.604Z,52.11
2022-11-01T14:07:45.240Z,52.53
2022-11-01T14:10:17.700Z,52.82
2022-11-01T14:12:49.184Z,52.68
2022-11-01T14:15:27.231Z,53.40
2022-11-01T14:17:57.965Z,54.14
2022-11-01T14:20:31.557Z,54.24
2022-11-01T14:22:59.010Z,53.81
2022-11-01T14:25:31.256Z,54.39
2022-11-01T14:28:16.326Z,54.51
2022-11-01T14:30:46.753Z,54.62
2022-11-01T14:33:23.702Z,54.99
2022-11-01T14:35:54.671Z,55.82
2022-11-01T14:38:36.945Z,55.75
2022-11-01T14:41:05.397Z,55.42
2022-11-01T14:44:12.397Z,54.83
2022-11-01T14:46:46.848Z,55.22
2022-11-01T14:49:26.390Z,55.11
2022-11-01T14:52:11.038Z,55.58
2022-11-01T14:54:52.109Z,55.26
2022-11-01T14:57:27.121Z,55.99
2022-11-01T14:59:55.389Z,56.51
2022-11-01T15:02:23.838Z,56.78
2022-11-01T15:04:52.502Z,56.87
2022-11-01T15:07:30.866Z,56.58
2022-11-01T15:10:02.508Z,56.68
2022-11-01T15:12:34.296Z,57.07
2022-11-01T15:15:01.635Z,56.98
2022-11-01T15:17:34.599Z,57.09
2022-11-01T15:20:13.071Z,57.80
2022-11-01T15:22:42.585Z,57.92
2022-11-01T15:25:20.341Z,58.42
2022-11-01T15:27:48.010Z,58.44
2022-11-01T15:30:25.339Z,58.84
2022-11-01T15:33:24.325Z,59.14
2022-11-01T15:35:59.688Z,60.00
2022-11-01T15:38:27.694Z,60.29
2022-11-01T15:40:54.471Z,60.52
2022-11-01T15:43:23.851Z,60.83
2022-11-01T15:46:00.102Z,61.52
2022-11-01T15:48:33.457Z,62.10
2022-11-01T15:51:03.264Z,62.41
2022-11-01T15:53:33.808Z,62.80
2022-11-01T15:56:03.481Z,62.75
2022-11-01T15:58:40.215Z,63.17
2022-11-01T16:01:15.559Z,63.39
2022-11-01T16:03:48.383Z,63.71
2022-11-01T16:06:21.642Z,64.14
2022-11-01T16:08:55.517Z,64.27
2022-11-01T16:11:25.122Z,64.72
2022-11-01T16:14:00.783Z,65.22
2022-11-01T16:16:28.547Z,64.94
2022-11-01T16:18:55.162Z,65.18
2022-11-01T16:21:31.020Z,65.57
2022-11-01T16:24:11.923Z,66.31
2022-11-01T16:27:03.941Z,65.96
2022-11-01T16:29:52.994Z,66.24
2022-11-01T16:32:22.506Z,67.09
2022-11-01T16:34:49.787Z,67.31
2022-11-01T16:37:28.102Z,67.12
2022-11-01T16:39:55.212Z,67.40
2022-11-01T16:42:24.481Z,70.02
2022-11-01T16:44:57.146Z,69.37
2022-11-01T16:47:23.924Z,69.97
2022-11-01T16:49:53.350Z,69.76
2022-11-01T16:52:20.005Z,69.67
2022-11-01T16:54:53.133Z,69.78
2022-11-01T16:57:27.945Z,70.61
2022-11-01T16:59:55.093Z,71.21
2022-11-01T17:02:27.977Z,71.26
2022-11-01T17:05:18.756Z,71.96
2022-11-01T17:07:45.878Z,72.22
2022-11-01T17:10:21.650Z,72.35
2022-11-01T17:12:48.276Z,72.55
2022-11-01T17:15:15.930Z,73.56
2022-11-01T17:17:45.664Z,72.93
2022-11-01T17:20:22.741Z,73.51
2022-11-01T17:22:51.827Z,73.05
2022-11-01T17:25:20.277Z,72.40
2022-11-01T17:27:51.870Z,72.33
2022-11-01T17:30:19.592Z,72.18
2022-11-01T17:32:46.209Z,73.00
2022-11-01T17:35:13.100Z,72.68
2022-11-01T17:37:40.286Z,72.00
2022-11-01T17:40:20.542Z,72.31
2022-11-01T17:42:47.214Z,72.02
2022-11-01T17:45:14.239Z,71.58
2022-11-01T17:47:40.899Z,71.90
2022-11-01T17:50:12.067Z,72.50
2022-11-01T17:52:38.992Z,72.03
2022-11-01T17:55:07.120Z,71.57
2022-11-01T17:57:34.385Z,71.72
2022-11-01T18:00:02.029Z,71.28
2022-11-01T18:02:39.175Z,70.87
2022-11-01T18:05:06.989Z,70.42
2022-11-01T18:07:41.986Z,70.46
2022-11-01T18:10:21.881Z,70.34
2022-11-01T18:13:06.818Z,70.20
2022-11-01T18:15:52.177Z,70.36
2022-11-01T18:18:26.269Z,70.57
2022-11-01T18:21:05.029Z,70.46
2022-11-01T18:23:32.284Z,70.69
2022-11-01T18:25:58.863Z,70.77
2022-11-01T18:28:26.872Z,71.11
2022-11-01T18:30:56.012Z,70.54
2022-11-01T18:33:58.565Z,70.54
2022-11-01T18:36:37.133Z,70.89
2022-11-01T18:39:16.803Z,70.86
2022-11-01T18:41:47.765Z,71.21
2022-11-01T18:44:14.671Z,71.37
2022-11-01T18:46:51.951Z,71.33
2022-11-01T18:49:18.600Z,71.44
2022-11-01T18:51:46.438Z,71.36
2022-11-01T18:54:26.284Z,71.07
2022-11-01T18:57:16.164Z,71.43
2022-11-01T18:59:46.345Z,71.50
2022-11-01T19:02:27.144Z,71.61
2022-11-01T19:05:14.191Z,71.53
2022-11-01T19:08:08.953Z,71.95
2022-11-01T19:10:28.574Z,71.95
2022-11-01T19:12:55.610Z,72.23
2022-11-01T19:15:28.570Z,72.00
2022-11-01T19:17:58.470Z,71.45
2022-11-01T19:20:34.448Z,71.80
2022-11-01T19:23:11.281Z,72.48
2022-11-01T19:25:38.213Z,72.20
2022-11-01T19:28:27.634Z,72.61
2022-11-01T19:30:57.434Z,72.27
2022-11-01T19:33:38.128Z,72.02
2022-11-01T19:36:14.317Z,72.39
2022-11-01T19:38:44.937Z,73.08
2022-11-01T19:41:15.532Z,72.63
2022-11-01T19:43:42.313Z,72.42
2022-11-01T19:46:13.424Z,72.58
2022-11-01T19:48:40.102Z,72.86
2022-11-01T19:51:16.956Z,72.38
2022-11-01T19:53:45.411Z,72.61
2022-11-01T19:56:29.762Z,72.66
2022-11-01T19:59:02.918Z,71.83
2022-11-01T20:01:46.341Z,72.39
2022-11-01T20:04:23.049Z,72.93
2022-11-01T20:06:57.596Z,72.65
2022-11-01T20:09:27.626Z,71.93
2022-11-01T20:11:54.981Z,71.94
2022-11-01T20:14:22.331Z,72.09
2022-11-01T20:16:49.248Z,72.54
2022-11-01T20:19:17.709Z,71.79
2022-11-01T20:21:45.421Z,72.32
2022-11-01T20:24:12.518Z,72.46
2022-11-01T20:26:39.248Z,72.74
2022-11-01T20:29:05.932Z,72.61
2022-11-01T20:31:32.640Z,72.59
2022-11-01T20:34:00.072Z,72.94
2022-11-01T20:36:27.509Z,73.64
2022-11-01T20:38:54.115Z,73.32
2022-11-01T20:41:22.207Z,73.52
2022-11-01T20:43:48.801Z,73.71
2022-11-01T20:46:15.476Z,73.69
2022-11-01T20:48:42.058Z,73.54
2022-11-01T20:51:08.740Z,73.30
2022-11-01T20:53:35.433Z,74.24
2022-11-01T20:56:02.260Z,74.94
2022-11-01T20:58:29.013Z,75.11
2022-11-01T21:00:56.455Z,75.68
2022-11-01T21:03:24.574Z,75.44
2022-11-01T21:05:51.710Z,75.45
2022-11-01T21:08:25.844Z,74.82
2022-11-01T21:10:59.499Z,74.58
2022-11-01T21:13:30.011Z,75.20
2022-11-01T21:15:59.508Z,75.49
2022-11-01T21:18:39.678Z,75.63
2022-11-01T21:21:15.503Z,75.98
2022-11-01T21:23:44.609Z,75.80
2022-11-01T21:26:21.677Z,76.24
2022-11-01T21:28:58.783Z,75.86
2022-11-01T21:31:30.711Z,75.56
2022-11-01T21:34:04.290Z,75.50
2022-11-01T21:36:36.215Z,75.66
2022-11-01T21:39:12.555Z,75.61
2022-11-01T21:41:44.282Z,76.36
2022-11-01T21:44:26.260Z,75.97
2022-11-01T21:47:17.728Z,76.38
2022-11-01T21:49:44.481Z,76.52
2022-11-01T21:54:43.558Z,76.57
2022-11-01T21:57:11.382Z,76.49
2022-11-01T21:59:38.359Z,76.17
2022-11-01T22:02:06.882Z,75.79
2022-11-01T22:04:33.913Z,76.08
2022-11-01T22:07:02.503Z,76.19
2022-11-01T22:09:30.001Z,76.39
2022-11-01T22:11:57.057Z,77.00
2022-11-01T22:14:24.699Z,76.06
2022-11-01T22:16:51.893Z,76.16
2022-11-01T22:19:18.514Z,76.25
2022-11-01T22:24:12.636Z,77.03
2022-11-01T22:26:39.246Z,76.92
2022-11-01T22:29:06.039Z,78.00
2022-11-01T22:31:32.720Z,77.71
2022-11-01T22:33:59.413Z,78.06
2022-11-01T22:36:32.318Z,78.55
2022-11-01T22:39:00.849Z,78.62
2022-11-01T22:41:33.178Z,78.10
2022-11-01T22:44:12.143Z,78.17
2022-11-01T22:46:56.841Z,78.07
2022-11-01T22:49:48.902Z,77.99
2022-11-01T22:52:32.043Z,78.81
2022-11-01T22:55:05.534Z,79.25
2022-11-01T22:57:36.290Z,79.13
2022-11-01T23:00:26.161Z,79.41
2022-11-01T23:02:59.599Z,79.78
2022-11-01T23:05:26.785Z,79.35
2022-11-01T23:07:57.642Z,79.68
2022-11-01T23:10:30.825Z,79.04
2022-11-01T23:13:43.766Z,78.86
2022-11-01T23:16:24.474Z,79.31
2022-11-01T23:18:53.103Z,79.36
2022-11-01T23:21:22.423Z,79.43
2022-11-01T23:23:49.631Z,80.01
2022-11-01T23:26:18.650Z,79.58
2022-11-01T23:28:48.486Z,79.21
2022-11-01T23:31:15.620Z,79.30
2022-11-01T23:33:46.901Z,79.95
2022-11-01T23:36:13.425Z,80.13
2022-11-01T23:38:44.767Z,80.36
2022-11-01T23:41:23.136Z,80.08
2022-11-01T23:43:53.673Z,80.40
2022-11-01T23:46:20.622Z,79.81
2022-11-01T23:48:47.360Z,80.31
2022-11-01T23:51:21.478Z,80.37
2022-11-01T23:53:52.967Z,80.49
2022-11-01T23:56:21.995Z,80.53
2022-11-01T23:58:56.424Z,80.66
